sensor_id;sensor_type;location;lat;lon;timestamp;temperature;humidity
19218;DHT22;9743;52.550;13.264;2022-07-23T00:01:44;16.50;99.90
19218;DHT22;9743;52.550;13.264;2022-07-23T00:04:13;16.40;99.90
19218;DHT22;9743;52.550;13.264;2022-07-23T00:06:39;16.40;99.90
19218;DHT22;9743;52.550;13.264;2022-07-23T00:09:06;16.40;99.90
19218;DHT22;9743;52.550;13.264;2022-07-23T00:11:33;16.40;99.90
19218;DHT22;9743;52.550;13.264;2022-07-23T00:14:00;16.40;99.90
19218;DHT22;9743;52.550;13.264;2022-07-23T00:16:28;16.50;99.90
19218;DHT22;9743;52.550;13.264;2022-07-23T00:18:55;16.50;99.90
19218;DHT22;9743;52.550;13.264;2022-07-23T00:21:22;16.50;99.90
19218;DHT22;9743;52.550;13.264;2022-07-23T00:23:48;16.50;99.90
19218;DHT22;9743;52.550;13.264;2022-07-23T00:26:15;16.50;99.90
19218;DHT22;9743;52.550;13.264;2022-07-23T00:28:42;16.40;99.90
19218;DHT22;9743;52.550;13.264;2022-07-23T00:31:09;16.50;99.90
19218;DHT22;9743;52.550;13.264;2022-07-23T00:33:37;16.50;99.90
19218;DHT22;9743;52.550;13.264;2022-07-23T00:36:04;16.50;99.90
19218;DHT22;9743;52.550;13.264;2022-07-23T00:38:31;16.50;99.90
19218;DHT22;9743;52.550;13.264;2022-07-23T00:40:58;16.40;99.90
19218;DHT22;9743;52.550;13.264;2022-07-23T00:43:25;16.40;99.90
19218;DHT22;9743;52.550;13.264;2022-07-23T00:45:52;16.40;99.90
19218;DHT22;9743;52.550;13.264;2022-07-23T00:48:19;16.30;99.90
19218;DHT22;9743;52.550;13.264;2022-07-23T00:50:47;16.30;99.90
19218;DHT22;9743;52.550;13.264;2022-07-23T00:53:14;16.20;99.90
19218;DHT22;9743;52.550;13.264;2022-07-23T00:55:42;16.20;99.90
19218;DHT22;9743;52.550;13.264;2022-07-23T00:58:09;16.10;99.90
19218;DHT22;9743;52.550;13.264;2022-07-23T01:00:36;16.10;99.90
19218;DHT22;9743;52.550;13.264;2022-07-23T01:03:03;16.00;99.90
19218;DHT22;9743;52.550;13.264;2022-07-23T01:05:30;16.00;99.90
19218;DHT22;9743;52.550;13.264;2022-07-23T01:07:58;16.00;99.90
19218;DHT22;9743;52.550;13.264;2022-07-23T01:10:26;16.00;99.90
19218;DHT22;9743;52.550;13.264;2022-07-23T01:12:59;15.90;99.90
19218;DHT22;9743;52.550;13.264;2022-07-23T01:15:27;16.00;99.90
19218;DHT22;9743;52.550;13.264;2022-07-23T01:17:54;16.20;99.90
19218;DHT22;9743;52.550;13.264;2022-07-23T01:20:21;16.20;99.90
19218;DHT22;9743;52.550;13.264;2022-07-23T01:22:49;16.20;99.90
19218;DHT22;9743;52.550;13.264;2022-07-23T01:25:16;16.10;99.90
19218;DHT22;9743;52.550;13.264;2022-07-23T01:27:43;15.90;99.90
19218;DHT22;9743;52.550;13.264;2022-07-23T01:30:11;15.70;99.90
19218;DHT22;9743;52.550;13.264;2022-07-23T01:32:38;15.60;99.90
19218;DHT22;9743;52.550;13.264;2022-07-23T01:35:06;15.60;99.90
19218;DHT22;9743;52.550;13.264;2022-07-23T01:37:34;15.70;99.90
19218;DHT22;9743;52.550;13.264;2022-07-23T01:40:02;15.80;99.90
19218;DHT22;9743;52.550;13.264;2022-07-23T01:42:29;15.70;99.90
19218;DHT22;9743;52.550;13.264;2022-07-23T01:44:56;15.70;99.90
19218;DHT22;9743;52.550;13.264;2022-07-23T01:47:23;15.70;99.90
19218;DHT22;9743;52.550;13.264;2022-07-23T01:49:50;15.60;99.90
19218;DHT22;9743;52.550;13.264;2022-07-23T01:52:17;15.60;99.90
19218;DHT22;9743;52.550;13.264;2022-07-23T01:54:43;15.50;99.90
19218;DHT22;9743;52.550;13.264;2022-07-23T01:57:12;15.50;99.90
19218;DHT22;9743;52.550;13.264;2022-07-23T01:59:38;15.40;99.90
19218;DHT22;9743;52.550;13.264;2022-07-23T02:02:05;15.40;99.90
19218;DHT22;9743;52.550;13.264;2022-07-23T02:04:32;15.40;99.90
19218;DHT22;9743;52.550;13.264;2022-07-23T02:07:02;15.40;99.90
19218;DHT22;9743;52.550;13.264;2022-07-23T02:09:28;15.50;99.90
19218;DHT22;9743;52.550;13.264;2022-07-23T02:11:55;15.50;99.90
19218;DHT22;9743;52.550;13.264;2022-07-23T02:14:24;15.60;99.90
19218;DHT22;9743;52.550;13.264;2022-07-23T02:16:51;15.70;99.90
19218;DHT22;9743;52.550;13.264;2022-07-23T02:19:18;15.60;99.90
19218;DHT22;9743;52.550;13.264;2022-07-23T02:21:44;15.60;99.90
19218;DHT22;9743;52.550;13.264;2022-07-23T02:24:11;15.50;99.90
19218;DHT22;9743;52.550;13.264;2022-07-23T02:26:38;15.50;99.90
19218;DHT22;9743;52.550;13.264;2022-07-23T02:29:05;15.40;99.90
19218;DHT22;9743;52.550;13.264;2022-07-23T02:31:33;15.40;99.90
19218;DHT22;9743;52.550;13.264;2022-07-23T02:34:01;15.40;99.90
19218;DHT22;9743;52.550;13.264;2022-07-23T02:36:28;15.40;99.90
19218;DHT22;9743;52.550;13.264;2022-07-23T02:38:55;15.40;99.90
19218;DHT22;9743;52.550;13.264;2022-07-23T02:41:22;15.40;99.90
19218;DHT22;9743;52.550;13.264;2022-07-23T02:43:49;15.50;99.90
19218;DHT22;9743;52.550;13.264;2022-07-23T02:46:16;15.50;99.90
19218;DHT22;9743;52.550;13.264;2022-07-23T02:48:44;15.60;99.90
19218;DHT22;9743;52.550;13.264;2022-07-23T02:51:11;15.70;99.90
19218;DHT22;9743;52.550;13.264;2022-07-23T02:53:38;15.80;99.90
19218;DHT22;9743;52.550;13.264;2022-07-23T02:56:05;15.60;99.90
19218;DHT22;9743;52.550;13.264;2022-07-23T02:58:31;15.50;99.90
19218;DHT22;9743;52.550;13.264;2022-07-23T03:00:58;15.50;99.90
19218;DHT22;9743;52.550;13.264;2022-07-23T03:03:25;15.50;99.90
19218;DHT22;9743;52.550;13.264;2022-07-23T03:05:53;15.50;99.90
19218;DHT22;9743;52.550;13.264;2022-07-23T03:08:20;15.40;99.90
19218;DHT22;9743;52.550;13.264;2022-07-23T03:10:47;15.50;99.90
19218;DHT22;9743;52.550;13.264;2022-07-23T03:13:14;15.40;99.90
19218;DHT22;9743;52.550;13.264;2022-07-23T03:15:40;15.40;99.90
19218;DHT22;9743;52.550;13.264;2022-07-23T03:18:07;15.40;99.90
19218;DHT22;9743;52.550;13.264;2022-07-23T03:20:34;15.40;99.90
19218;DHT22;9743;52.550;13.264;2022-07-23T03:23:02;15.50;99.90
19218;DHT22;9743;52.550;13.264;2022-07-23T03:25:29;15.40;99.90
19218;DHT22;9743;52.550;13.264;2022-07-23T03:27:56;15.40;99.90
19218;DHT22;9743;52.550;13.264;2022-07-23T03:30:23;15.40;99.90
19218;DHT22;9743;52.550;13.264;2022-07-23T03:32:50;15.40;99.90
19218;DHT22;9743;52.550;13.264;2022-07-23T03:35:16;15.40;99.90
19218;DHT22;9743;52.550;13.264;2022-07-23T03:37:43;15.40;99.90
19218;DHT22;9743;52.550;13.264;2022-07-23T03:40:12;15.40;99.90
19218;DHT22;9743;52.550;13.264;2022-07-23T03:42:39;15.50;99.90
19218;DHT22;9743;52.550;13.264;2022-07-23T03:45:08;15.50;99.90
19218;DHT22;9743;52.550;13.264;2022-07-23T03:47:35;15.60;99.90
19218;DHT22;9743;52.550;13.264;2022-07-23T03:50:02;15.50;99.90
19218;DHT22;9743;52.550;13.264;2022-07-23T03:52:29;15.50;99.90
19218;DHT22;9743;52.550;13.264;2022-07-23T03:54:55;15.50;99.90
19218;DHT22;9743;52.550;13.264;2022-07-23T03:57:24;15.50;99.90
19218;DHT22;9743;52.550;13.264;2022-07-23T03:59:50;15.50;99.90
19218;DHT22;9743;52.550;13.264;2022-07-23T04:02:20;15.60;99.90
19218;DHT22;9743;52.550;13.264;2022-07-23T04:04:47;15.80;99.90
19218;DHT22;9743;52.550;13.264;2022-07-23T04:07:14;15.80;99.90
19218;DHT22;9743;52.550;13.264;2022-07-23T04:09:43;15.90;99.90
19218;DHT22;9743;52.550;13.264;2022-07-23T04:12:10;16.00;99.90
19218;DHT22;9743;52.550;13.264;2022-07-23T04:14:38;16.00;99.90
19218;DHT22;9743;52.550;13.264;2022-07-23T04:17:05;16.00;99.90
19218;DHT22;9743;52.550;13.264;2022-07-23T04:19:31;16.00;99.90
19218;DHT22;9743;52.550;13.264;2022-07-23T04:21:58;16.00;99.90
19218;DHT22;9743;52.550;13.264;2022-07-23T04:24:27;16.00;99.90
19218;DHT22;9743;52.550;13.264;2022-07-23T04:26:54;16.00;99.90
19218;DHT22;9743;52.550;13.264;2022-07-23T04:29:21;16.00;99.90
19218;DHT22;9743;52.550;13.264;2022-07-23T04:31:49;15.90;99.90
19218;DHT22;9743;52.550;13.264;2022-07-23T04:34:15;15.70;99.90
19218;DHT22;9743;52.550;13.264;2022-07-23T04:36:42;15.40;99.90
19218;DHT22;9743;52.550;13.264;2022-07-23T04:39:09;15.10;99.90
19218;DHT22;9743;52.550;13.264;2022-07-23T04:41:36;14.90;99.90
19218;DHT22;9743;52.550;13.264;2022-07-23T04:44:03;14.90;99.90
19218;DHT22;9743;52.550;13.264;2022-07-23T04:46:30;15.10;99.90
19218;DHT22;9743;52.550;13.264;2022-07-23T04:48:58;15.30;99.90
19218;DHT22;9743;52.550;13.264;2022-07-23T04:51:25;15.10;99.90
19218;DHT22;9743;52.550;13.264;2022-07-23T04:53:54;15.00;99.90
19218;DHT22;9743;52.550;13.264;2022-07-23T04:56:21;14.90;99.90
19218;DHT22;9743;52.550;13.264;2022-07-23T04:58:48;14.80;99.90
19218;DHT22;9743;52.550;13.264;2022-07-23T05:01:15;14.80;99.90
19218;DHT22;9743;52.550;13.264;2022-07-23T05:03:42;15.00;99.90
19218;DHT22;9743;52.550;13.264;2022-07-23T05:06:10;15.10;99.90
19218;DHT22;9743;52.550;13.264;2022-07-23T05:08:37;15.00;99.90
19218;DHT22;9743;52.550;13.264;2022-07-23T05:11:03;15.10;99.90
19218;DHT22;9743;52.550;13.264;2022-07-23T05:13:30;15.10;99.90
19218;DHT22;9743;52.550;13.264;2022-07-23T05:15:57;15.00;99.90
19218;DHT22;9743;52.550;13.264;2022-07-23T05:18:24;15.00;99.90
19218;DHT22;9743;52.550;13.264;2022-07-23T05:20:53;15.00;99.90
19218;DHT22;9743;52.550;13.264;2022-07-23T05:23:21;15.00;99.90
19218;DHT22;9743;52.550;13.264;2022-07-23T05:25:48;15.00;99.90
19218;DHT22;9743;52.550;13.264;2022-07-23T05:28:15;15.20;99.90
19218;DHT22;9743;52.550;13.264;2022-07-23T05:30:42;15.30;99.90
19218;DHT22;9743;52.550;13.264;2022-07-23T05:33:09;15.30;99.90
19218;DHT22;9743;52.550;13.264;2022-07-23T05:35:35;15.30;99.90
19218;DHT22;9743;52.550;13.264;2022-07-23T05:38:02;15.30;99.90
19218;DHT22;9743;52.550;13.264;2022-07-23T05:40:30;15.30;99.90
19218;DHT22;9743;52.550;13.264;2022-07-23T05:42:58;15.30;99.90
19218;DHT22;9743;52.550;13.264;2022-07-23T05:45:25;15.40;99.90
19218;DHT22;9743;52.550;13.264;2022-07-23T05:47:52;15.40;99.90
19218;DHT22;9743;52.550;13.264;2022-07-23T05:50:18;15.40;99.90
19218;DHT22;9743;52.550;13.264;2022-07-23T05:52:45;15.30;99.90
19218;DHT22;9743;52.550;13.264;2022-07-23T05:55:13;15.20;99.90
19218;DHT22;9743;52.550;13.264;2022-07-23T05:57:41;15.30;99.90
19218;DHT22;9743;52.550;13.264;2022-07-23T06:00:09;15.40;99.90
19218;DHT22;9743;52.550;13.264;2022-07-23T06:02:37;15.40;99.90
19218;DHT22;9743;52.550;13.264;2022-07-23T06:05:05;15.30;99.90
19218;DHT22;9743;52.550;13.264;2022-07-23T06:07:33;15.60;99.90
19218;DHT22;9743;52.550;13.264;2022-07-23T06:10:00;15.50;99.90
19218;DHT22;9743;52.550;13.264;2022-07-23T06:12:26;15.40;99.90
19218;DHT22;9743;52.550;13.264;2022-07-23T06:14:55;15.40;99.90
19218;DHT22;9743;52.550;13.264;2022-07-23T06:17:21;15.40;99.90
19218;DHT22;9743;52.550;13.264;2022-07-23T06:19:48;15.40;99.90
19218;DHT22;9743;52.550;13.264;2022-07-23T06:22:15;15.30;99.90
19218;DHT22;9743;52.550;13.264;2022-07-23T06:24:42;15.30;99.90
19218;DHT22;9743;52.550;13.264;2022-07-23T06:27:09;15.40;99.90
19218;DHT22;9743;52.550;13.264;2022-07-23T06:29:35;15.40;99.90
19218;DHT22;9743;52.550;13.264;2022-07-23T06:32:04;15.50;99.90
19218;DHT22;9743;52.550;13.264;2022-07-23T06:34:31;15.50;99.90
19218;DHT22;9743;52.550;13.264;2022-07-23T06:36:58;15.60;99.90
19218;DHT22;9743;52.550;13.264;2022-07-23T06:39:25;15.50;99.90
19218;DHT22;9743;52.550;13.264;2022-07-23T06:41:52;15.60;99.90
19218;DHT22;9743;52.550;13.264;2022-07-23T06:44:19;15.50;99.90
19218;DHT22;9743;52.550;13.264;2022-07-23T06:46:46;15.40;99.90
19218;DHT22;9743;52.550;13.264;2022-07-23T06:49:14;15.40;99.90
19218;DHT22;9743;52.550;13.264;2022-07-23T06:51:41;15.40;99.90
19218;DHT22;9743;52.550;13.264;2022-07-23T06:54:07;15.40;99.90
19218;DHT22;9743;52.550;13.264;2022-07-23T06:56:35;15.40;99.90
19218;DHT22;9743;52.550;13.264;2022-07-23T06:59:02;15.40;99.90
19218;DHT22;9743;52.550;13.264;2022-07-23T07:01:29;15.30;99.90
19218;DHT22;9743;52.550;13.264;2022-07-23T07:03:55;15.30;99.90
19218;DHT22;9743;52.550;13.264;2022-07-23T07:06:24;15.30;99.90
19218;DHT22;9743;52.550;13.264;2022-07-23T07:08:50;15.30;99.90
19218;DHT22;9743;52.550;13.264;2022-07-23T07:11:17;15.30;99.90
19218;DHT22;9743;52.550;13.264;2022-07-23T07:13:44;15.50;99.90
19218;DHT22;9743;52.550;13.264;2022-07-23T07:16:11;15.50;99.90
19218;DHT22;9743;52.550;13.264;2022-07-23T07:18:38;15.50;99.90
19218;DHT22;9743;52.550;13.264;2022-07-23T07:21:05;15.50;99.90
19218;DHT22;9743;52.550;13.264;2022-07-23T07:23:33;15.50;99.90
19218;DHT22;9743;52.550;13.264;2022-07-23T07:26:00;15.60;99.90
19218;DHT22;9743;52.550;13.264;2022-07-23T07:28:26;15.50;99.90
19218;DHT22;9743;52.550;13.264;2022-07-23T07:30:53;15.70;99.90
19218;DHT22;9743;52.550;13.264;2022-07-23T07:33:20;15.80;99.90
19218;DHT22;9743;52.550;13.264;2022-07-23T07:35:47;16.00;99.90
19218;DHT22;9743;52.550;13.264;2022-07-23T07:38:14;16.00;99.90
19218;DHT22;9743;52.550;13.264;2022-07-23T07:40:42;16.00;99.90
19218;DHT22;9743;52.550;13.264;2022-07-23T07:43:09;16.00;99.90
19218;DHT22;9743;52.550;13.264;2022-07-23T07:45:36;16.10;99.90
19218;DHT22;9743;52.550;13.264;2022-07-23T07:48:03;16.00;99.90
19218;DHT22;9743;52.550;13.264;2022-07-23T07:50:30;16.20;99.90
19218;DHT22;9743;52.550;13.264;2022-07-23T07:52:57;16.30;99.90
19218;DHT22;9743;52.550;13.264;2022-07-23T07:55:24;16.20;99.90
19218;DHT22;9743;52.550;13.264;2022-07-23T07:57:52;16.30;99.90
19218;DHT22;9743;52.550;13.264;2022-07-23T08:00:18;16.10;99.90
19218;DHT22;9743;52.550;13.264;2022-07-23T08:02:46;16.30;99.90
19218;DHT22;9743;52.550;13.264;2022-07-23T08:05:14;16.50;99.90
19218;DHT22;9743;52.550;13.264;2022-07-23T08:07:41;17.00;99.90
19218;DHT22;9743;52.550;13.264;2022-07-23T08:10:09;17.00;99.90
19218;DHT22;9743;52.550;13.264;2022-07-23T08:12:43;17.40;99.90
19218;DHT22;9743;52.550;13.264;2022-07-23T08:15:14;17.70;99.90
19218;DHT22;9743;52.550;13.264;2022-07-23T08:17:41;17.90;99.90
19218;DHT22;9743;52.550;13.264;2022-07-23T08:20:10;17.90;99.90
19218;DHT22;9743;52.550;13.264;2022-07-23T08:22:48;17.70;99.90
19218;DHT22;9743;52.550;13.264;2022-07-23T08:25:17;17.90;99.90
19218;DHT22;9743;52.550;13.264;2022-07-23T08:27:46;18.00;99.90
19218;DHT22;9743;52.550;13.264;2022-07-23T08:30:14;18.20;99.90
19218;DHT22;9743;52.550;13.264;2022-07-23T08:32:48;18.20;99.90
19218;DHT22;9743;52.550;13.264;2022-07-23T08:35:15;18.00;99.90
19218;DHT22;9743;52.550;13.264;2022-07-23T08:37:42;17.90;99.90
19218;DHT22;9743;52.550;13.264;2022-07-23T08:40:10;18.10;99.90
19218;DHT22;9743;52.550;13.264;2022-07-23T08:42:37;18.20;99.90
19218;DHT22;9743;52.550;13.264;2022-07-23T08:45:07;18.30;99.90
19218;DHT22;9743;52.550;13.264;2022-07-23T08:47:37;18.40;99.90
19218;DHT22;9743;52.550;13.264;2022-07-23T08:50:04;18.50;99.90
19218;DHT22;9743;52.550;13.264;2022-07-23T08:52:34;18.90;99.90
19218;DHT22;9743;52.550;13.264;2022-07-23T08:55:02;19.20;99.90
19218;DHT22;9743;52.550;13.264;2022-07-23T08:57:29;19.70;99.90
19218;DHT22;9743;52.550;13.264;2022-07-23T08:59:56;19.70;99.90
19218;DHT22;9743;52.550;13.264;2022-07-23T09:02:23;19.40;99.90
19218;DHT22;9743;52.550;13.264;2022-07-23T09:04:51;19.80;99.90
19218;DHT22;9743;52.550;13.264;2022-07-23T09:07:18;19.70;99.90
19218;DHT22;9743;52.550;13.264;2022-07-23T09:09:46;19.70;99.90
19218;DHT22;9743;52.550;13.264;2022-07-23T09:12:13;19.60;99.90
19218;DHT22;9743;52.550;13.264;2022-07-23T09:14:42;19.70;99.90
19218;DHT22;9743;52.550;13.264;2022-07-23T09:17:11;19.40;99.90
19218;DHT22;9743;52.550;13.264;2022-07-23T09:19:38;19.60;99.90
19218;DHT22;9743;52.550;13.264;2022-07-23T09:22:20;19.30;99.90
19218;DHT22;9743;52.550;13.264;2022-07-23T09:25:05;19.40;99.90
19218;DHT22;9743;52.550;13.264;2022-07-23T09:27:47;19.60;99.90
19218;DHT22;9743;52.550;13.264;2022-07-23T09:30:14;19.80;99.90
19218;DHT22;9743;52.550;13.264;2022-07-23T09:32:42;19.90;99.90
19218;DHT22;9743;52.550;13.264;2022-07-23T09:35:09;20.20;99.90
19218;DHT22;9743;52.550;13.264;2022-07-23T09:37:37;20.50;99.90
19218;DHT22;9743;52.550;13.264;2022-07-23T09:40:06;21.00;99.90
19218;DHT22;9743;52.550;13.264;2022-07-23T09:42:33;21.20;99.90
19218;DHT22;9743;52.550;13.264;2022-07-23T09:45:00;20.60;99.90
19218;DHT22;9743;52.550;13.264;2022-07-23T09:47:29;20.80;99.90
19218;DHT22;9743;52.550;13.264;2022-07-23T09:50:02;20.80;99.90
19218;DHT22;9743;52.550;13.264;2022-07-23T09:52:33;20.90;99.90
19218;DHT22;9743;52.550;13.264;2022-07-23T09:55:03;21.40;99.90
19218;DHT22;9743;52.550;13.264;2022-07-23T09:57:32;22.20;99.90
19218;DHT22;9743;52.550;13.264;2022-07-23T10:00:01;21.50;99.90
19218;DHT22;9743;52.550;13.264;2022-07-23T10:02:28;21.00;99.90
19218;DHT22;9743;52.550;13.264;2022-07-23T10:04:56;20.80;99.90
19218;DHT22;9743;52.550;13.264;2022-07-23T10:07:25;20.90;99.90
19218;DHT22;9743;52.550;13.264;2022-07-23T10:09:53;20.70;99.90
19218;DHT22;9743;52.550;13.264;2022-07-23T10:12:22;20.70;99.90
19218;DHT22;9743;52.550;13.264;2022-07-23T10:14:59;21.20;99.90
19218;DHT22;9743;52.550;13.264;2022-07-23T10:17:28;21.30;99.90
19218;DHT22;9743;52.550;13.264;2022-07-23T10:19:55;21.30;99.90
19218;DHT22;9743;52.550;13.264;2022-07-23T10:22:25;21.50;99.90
19218;DHT22;9743;52.550;13.264;2022-07-23T10:24:59;21.90;99.90
19218;DHT22;9743;52.550;13.264;2022-07-23T10:27:54;22.10;99.90
19218;DHT22;9743;52.550;13.264;2022-07-23T10:30:30;22.00;99.90
19218;DHT22;9743;52.550;13.264;2022-07-23T10:33:11;21.90;99.90
19218;DHT22;9743;52.550;13.264;2022-07-23T10:35:49;21.40;99.90
19218;DHT22;9743;52.550;13.264;2022-07-23T10:38:24;22.10;99.90
19218;DHT22;9743;52.550;13.264;2022-07-23T10:40:54;22.70;99.90
19218;DHT22;9743;52.550;13.264;2022-07-23T10:43:24;22.40;99.90
19218;DHT22;9743;52.550;13.264;2022-07-23T10:45:51;22.10;99.90
19218;DHT22;9743;52.550;13.264;2022-07-23T10:48:20;21.90;99.90
19218;DHT22;9743;52.550;13.264;2022-07-23T10:51:06;22.30;99.90
19218;DHT22;9743;52.550;13.264;2022-07-23T10:53:55;23.00;99.90
19218;DHT22;9743;52.550;13.264;2022-07-23T10:56:50;22.80;99.90
19218;DHT22;9743;52.550;13.264;2022-07-23T11:00:15;22.90;99.90
19218;DHT22;9743;52.550;13.264;2022-07-23T11:02:44;23.20;99.90
19218;DHT22;9743;52.550;13.264;2022-07-23T11:05:13;23.00;99.90
19218;DHT22;9743;52.550;13.264;2022-07-23T11:08:10;22.60;99.90
19218;DHT22;9743;52.550;13.264;2022-07-23T11:10:39;22.40;99.90
19218;DHT22;9743;52.550;13.264;2022-07-23T11:13:31;22.40;99.90
19218;DHT22;9743;52.550;13.264;2022-07-23T11:16:18;22.30;99.90
19218;DHT22;9743;52.550;13.264;2022-07-23T11:19:05;22.60;99.90
19218;DHT22;9743;52.550;13.264;2022-07-23T11:21:49;23.40;99.90
19218;DHT22;9743;52.550;13.264;2022-07-23T11:24:21;23.80;99.90
19218;DHT22;9743;52.550;13.264;2022-07-23T11:26:53;23.40;99.90
19218;DHT22;9743;52.550;13.264;2022-07-23T11:29:48;23.90;99.90
19218;DHT22;9743;52.550;13.264;2022-07-23T11:32:37;23.20;99.90
19218;DHT22;9743;52.550;13.264;2022-07-23T11:35:22;23.00;99.90
19218;DHT22;9743;52.550;13.264;2022-07-23T11:37:49;23.10;99.90
19218;DHT22;9743;52.550;13.264;2022-07-23T11:40:19;23.20;99.90
19218;DHT22;9743;52.550;13.264;2022-07-23T11:42:55;22.90;99.90
19218;DHT22;9743;52.550;13.264;2022-07-23T11:45:24;22.60;99.90
19218;DHT22;9743;52.550;13.264;2022-07-23T11:47:53;22.60;99.90
19218;DHT22;9743;52.550;13.264;2022-07-23T11:50:23;22.40;99.90
19218;DHT22;9743;52.550;13.264;2022-07-23T11:52:50;22.70;99.90
19218;DHT22;9743;52.550;13.264;2022-07-23T11:55:17;22.60;99.90
19218;DHT22;9743;52.550;13.264;2022-07-23T11:57:45;22.70;99.90
19218;DHT22;9743;52.550;13.264;2022-07-23T12:00:14;22.40;99.90
19218;DHT22;9743;52.550;13.264;2022-07-23T12:02:43;22.70;99.90
19218;DHT22;9743;52.550;13.264;2022-07-23T12:05:13;23.00;99.90
19218;DHT22;9743;52.550;13.264;2022-07-23T12:07:41;23.50;99.90
19218;DHT22;9743;52.550;13.264;2022-07-23T12:10:14;23.80;99.90
19218;DHT22;9743;52.550;13.264;2022-07-23T12:12:42;23.90;99.90
19218;DHT22;9743;52.550;13.264;2022-07-23T12:15:09;23.90;99.90
19218;DHT22;9743;52.550;13.264;2022-07-23T12:17:38;23.50;99.90
19218;DHT22;9743;52.550;13.264;2022-07-23T12:20:12;23.20;99.90
19218;DHT22;9743;52.550;13.264;2022-07-23T12:22:43;23.00;99.90
19218;DHT22;9743;52.550;13.264;2022-07-23T12:25:12;23.20;99.90
19218;DHT22;9743;52.550;13.264;2022-07-23T12:27:39;22.90;99.90
19218;DHT22;9743;52.550;13.264;2022-07-23T12:30:23;22.80;99.90
19218;DHT22;9743;52.550;13.264;2022-07-23T12:32:52;22.80;99.90
19218;DHT22;9743;52.550;13.264;2022-07-23T12:35:20;23.00;99.90
19218;DHT22;9743;52.550;13.264;2022-07-23T12:37:50;23.10;99.90
19218;DHT22;9743;52.550;13.264;2022-07-23T12:40:23;23.30;99.90
19218;DHT22;9743;52.550;13.264;2022-07-23T12:42:53;23.00;99.90
19218;DHT22;9743;52.550;13.264;2022-07-23T12:45:20;23.10;99.90
19218;DHT22;9743;52.550;13.264;2022-07-23T12:47:55;23.20;99.90
19218;DHT22;9743;52.550;13.264;2022-07-23T12:50:42;24.00;99.90
19218;DHT22;9743;52.550;13.264;2022-07-23T12:53:13;23.80;99.90
19218;DHT22;9743;52.550;13.264;2022-07-23T12:55:41;23.20;99.90
19218;DHT22;9743;52.550;13.264;2022-07-23T12:58:13;23.40;99.90
19218;DHT22;9743;52.550;13.264;2022-07-23T13:00:56;24.20;99.90
19218;DHT22;9743;52.550;13.264;2022-07-23T13:03:26;24.90;99.90
19218;DHT22;9743;52.550;13.264;2022-07-23T13:05:53;24.70;99.90
19218;DHT22;9743;52.550;13.264;2022-07-23T13:08:22;23.90;99.90
19218;DHT22;9743;52.550;13.264;2022-07-23T13:10:49;23.40;99.90
19218;DHT22;9743;52.550;13.264;2022-07-23T13:13:20;24.00;99.90
19218;DHT22;9743;52.550;13.264;2022-07-23T13:15:48;24.10;99.90
19218;DHT22;9743;52.550;13.264;2022-07-23T13:18:14;24.30;99.90
19218;DHT22;9743;52.550;13.264;2022-07-23T13:20:43;24.80;99.90
19218;DHT22;9743;52.550;13.264;2022-07-23T13:23:10;24.50;99.90
19218;DHT22;9743;52.550;13.264;2022-07-23T13:25:38;24.70;99.90
19218;DHT22;9743;52.550;13.264;2022-07-23T13:28:05;24.90;99.90
19218;DHT22;9743;52.550;13.264;2022-07-23T13:30:32;24.90;99.90
19218;DHT22;9743;52.550;13.264;2022-07-23T13:32:59;24.40;99.90
19218;DHT22;9743;52.550;13.264;2022-07-23T13:35:26;24.90;99.90
19218;DHT22;9743;52.550;13.264;2022-07-23T13:37:52;25.00;99.90
19218;DHT22;9743;52.550;13.264;2022-07-23T13:40:19;24.90;99.90
19218;DHT22;9743;52.550;13.264;2022-07-23T13:42:48;24.60;99.90
19218;DHT22;9743;52.550;13.264;2022-07-23T13:45:15;24.90;99.90
19218;DHT22;9743;52.550;13.264;2022-07-23T13:47:44;24.90;99.90
19218;DHT22;9743;52.550;13.264;2022-07-23T13:50:11;24.80;99.90
19218;DHT22;9743;52.550;13.264;2022-07-23T13:52:38;24.20;99.90
19218;DHT22;9743;52.550;13.264;2022-07-23T13:55:06;24.90;99.90
19218;DHT22;9743;52.550;13.264;2022-07-23T13:57:33;25.20;99.90
19218;DHT22;9743;52.550;13.264;2022-07-23T14:00:06;25.50;99.90
19218;DHT22;9743;52.550;13.264;2022-07-23T14:02:35;25.30;99.90
19218;DHT22;9743;52.550;13.264;2022-07-23T14:05:03;24.70;99.90
19218;DHT22;9743;52.550;13.264;2022-07-23T14:07:30;24.20;99.90
19218;DHT22;9743;52.550;13.264;2022-07-23T14:09:57;24.40;99.90
19218;DHT22;9743;52.550;13.264;2022-07-23T14:12:24;23.90;99.90
19218;DHT22;9743;52.550;13.264;2022-07-23T14:14:51;24.20;99.90
19218;DHT22;9743;52.550;13.264;2022-07-23T14:17:19;24.10;99.90
19218;DHT22;9743;52.550;13.264;2022-07-23T14:19:46;23.90;99.90
19218;DHT22;9743;52.550;13.264;2022-07-23T14:22:13;24.00;99.90
19218;DHT22;9743;52.550;13.264;2022-07-23T14:24:40;24.20;99.90
19218;DHT22;9743;52.550;13.264;2022-07-23T14:27:07;24.30;99.90
19218;DHT22;9743;52.550;13.264;2022-07-23T14:29:34;24.20;99.90
19218;DHT22;9743;52.550;13.264;2022-07-23T14:32:03;24.10;99.90
19218;DHT22;9743;52.550;13.264;2022-07-23T14:34:31;24.20;99.90
19218;DHT22;9743;52.550;13.264;2022-07-23T14:36:58;24.70;99.90
19218;DHT22;9743;52.550;13.264;2022-07-23T14:39:25;25.10;99.90
19218;DHT22;9743;52.550;13.264;2022-07-23T14:41:52;24.90;99.90
19218;DHT22;9743;52.550;13.264;2022-07-23T14:44:19;24.60;99.90
19218;DHT22;9743;52.550;13.264;2022-07-23T14:46:46;24.50;99.90
19218;DHT22;9743;52.550;13.264;2022-07-23T14:49:13;24.50;99.90
19218;DHT22;9743;52.550;13.264;2022-07-23T14:51:41;24.40;99.90
19218;DHT22;9743;52.550;13.264;2022-07-23T14:54:09;24.30;99.90
19218;DHT22;9743;52.550;13.264;2022-07-23T14:56:36;24.00;99.90
19218;DHT22;9743;52.550;13.264;2022-07-23T14:59:03;23.90;99.90
19218;DHT22;9743;52.550;13.264;2022-07-23T15:01:29;23.70;99.90
19218;DHT22;9743;52.550;13.264;2022-07-23T15:03:56;24.20;99.90
19218;DHT22;9743;52.550;13.264;2022-07-23T15:06:23;24.40;99.90
19218;DHT22;9743;52.550;13.264;2022-07-23T15:08:51;24.20;99.90
19218;DHT22;9743;52.550;13.264;2022-07-23T15:11:18;24.20;99.90
19218;DHT22;9743;52.550;13.264;2022-07-23T15:13:46;24.40;99.90
19218;DHT22;9743;52.550;13.264;2022-07-23T15:16:13;24.30;99.90
19218;DHT22;9743;52.550;13.264;2022-07-23T15:18:40;24.30;99.90
19218;DHT22;9743;52.550;13.264;2022-07-23T15:21:07;24.20;99.90
19218;DHT22;9743;52.550;13.264;2022-07-23T15:23:33;24.20;99.90
19218;DHT22;9743;52.550;13.264;2022-07-23T15:26:02;24.20;99.90
19218;DHT22;9743;52.550;13.264;2022-07-23T15:28:28;23.90;99.90
19218;DHT22;9743;52.550;13.264;2022-07-23T15:30:55;23.80;99.90
19218;DHT22;9743;52.550;13.264;2022-07-23T15:33:22;24.10;99.90
19218;DHT22;9743;52.550;13.264;2022-07-23T15:35:49;24.30;99.90
19218;DHT22;9743;52.550;13.264;2022-07-23T15:38:18;24.50;99.90
19218;DHT22;9743;52.550;13.264;2022-07-23T15:40:45;24.10;99.90